sensor_id;sensor_type;location;lat;lon;timestamp;pressure;altitude;pressure_sealevel;temperature;humidity
73821;BME280;62150;43.582;1.456;2023-11-22T07:37:08;100856.19;;;11.76;100.00
73821;BME280;62150;43.582;1.456;2023-11-22T07:39:35;100865.28;;;11.60;100.00
73821;BME280;62150;43.582;1.456;2023-11-22T07:42:04;100871.00;;;11.69;100.00
73821;BME280;62150;43.582;1.456;2023-11-22T07:44:34;100875.66;;;11.85;100.00
73821;BME280;62150;43.582;1.456;2023-11-22T07:47:04;100877.69;;;12.51;100.00
73821;BME280;62150;43.582;1.456;2023-11-22T07:49:34;100868.00;;;11.83;100.00
73821;BME280;62150;43.582;1.456;2023-11-22T07:52:04;100878.97;;;11.62;100.00
73821;BME280;62150;43.582;1.456;2023-11-22T07:54:34;100881.28;;;11.97;100.00
73821;BME280;62150;43.582;1.456;2023-11-22T07:57:01;100876.94;;;11.71;100.00
73821;BME280;62150;43.582;1.456;2023-11-22T07:59:29;100881.94;;;11.78;100.00
73821;BME280;62150;43.582;1.456;2023-11-22T08:01:56;100883.72;;;11.74;100.00
73821;BME280;62150;43.582;1.456;2023-11-22T08:04:24;100881.06;;;12.03;100.00
73821;BME280;62150;43.582;1.456;2023-11-22T08:06:52;100883.66;;;11.77;100.00
73821;BME280;62150;43.582;1.456;2023-11-22T08:09:22;100884.91;;;11.64;100.00
73821;BME280;62150;43.582;1.456;2023-11-22T08:11:51;100893.38;;;11.67;100.00
73821;BME280;62150;43.582;1.456;2023-11-22T08:14:19;100883.25;;;11.89;100.00
73821;BME280;62150;43.582;1.456;2023-11-22T08:16:47;100879.09;;;11.85;100.00
73821;BME280;62150;43.582;1.456;2023-11-22T08:19:14;100870.56;;;11.83;100.00
73821;BME280;62150;43.582;1.456;2023-11-22T08:21:42;100874.63;;;11.90;100.00
73821;BME280;62150;43.582;1.456;2023-11-22T08:24:10;100871.06;;;11.94;100.00
73821;BME280;62150;43.582;1.456;2023-11-22T08:26:39;100875.34;;;12.20;100.00
73821;BME280;62150;43.582;1.456;2023-11-22T08:29:08;100873.09;;;12.11;100.00
73821;BME280;62150;43.582;1.456;2023-11-22T08:31:37;100870.13;;;11.97;100.00
73821;BME280;62150;43.582;1.456;2023-11-22T08:34:05;100867.25;;;11.80;100.00
73821;BME280;62150;43.582;1.456;2023-11-22T08:36:33;100879.59;;;11.96;100.00
73821;BME280;62150;43.582;1.456;2023-11-22T08:39:01;100877.69;;;12.01;100.00
73821;BME280;62150;43.582;1.456;2023-11-22T08:41:29;100878.88;;;11.91;100.00
73821;BME280;62150;43.582;1.456;2023-11-22T08:43:58;100868.78;;;12.12;100.00
73821;BME280;62150;43.582;1.456;2023-11-22T08:46:27;100875.97;;;12.27;100.00
73821;BME280;62150;43.582;1.456;2023-11-22T08:48:56;100879.59;;;11.96;100.00
73821;BME280;62150;43.582;1.456;2023-11-22T08:51:23;100863.19;;;11.99;100.00
73821;BME280;62150;43.582;1.456;2023-11-22T08:53:51;100869.47;;;11.90;100.00
73821;BME280;62150;43.582;1.456;2023-11-22T08:56:18;100871.59;;;12.04;100.00
73821;BME280;62150;43.582;1.456;2023-11-22T08:58:46;100876.13;;;11.97;100.00
73821;BME280;62150;43.582;1.456;2023-11-22T09:01:21;100878.34;;;11.82;100.00
73821;BME280;62150;43.582;1.456;2023-11-22T09:03:52;100874.22;;;11.78;100.00
73821;BME280;62150;43.582;1.456;2023-11-22T09:06:19;100889.28;;;11.88;100.00
73821;BME280;62150;43.582;1.456;2023-11-22T09:08:47;100880.44;;;11.97;100.00
73821;BME280;62150;43.582;1.456;2023-11-22T09:11:15;100888.06;;;11.72;100.00
73821;BME280;62150;43.582;1.456;2023-11-22T09:13:46;100878.19;;;11.86;100.00
73821;BME280;62150;43.582;1.456;2023-11-22T09:16:14;100878.25;;;12.11;100.00
73821;BME280;62150;43.582;1.456;2023-11-22T09:18:42;100871.72;;;12.26;100.00
73821;BME280;62150;43.582;1.456;2023-11-22T09:21:11;100857.84;;;12.05;100.00
73821;BME280;62150;43.582;1.456;2023-11-22T09:23:39;100870.22;;;12.19;100.00
73821;BME280;62150;43.582;1.456;2023-11-22T09:26:06;100861.84;;;11.87;100.00
73821;BME280;62150;43.582;1.456;2023-11-22T09:28:37;100863.88;;;12.29;100.00
73821;BME280;62150;43.582;1.456;2023-11-22T09:31:05;100861.72;;;12.17;100.00
73821;BME280;62150;43.582;1.456;2023-11-22T09:33:33;100868.34;;;12.24;100.00
73821;BME280;62150;43.582;1.456;2023-11-22T09:36:01;100868.94;;;12.07;100.00
73821;BME280;62150;43.582;1.456;2023-11-22T09:38:31;100881.88;;;12.05;100.00
73821;BME280;62150;43.582;1.456;2023-11-22T09:41:00;100888.59;;;11.83;100.00
73821;BME280;62150;43.582;1.456;2023-11-22T09:43:29;100890.88;;;11.92;100.00
73821;BME280;62150;43.582;1.456;2023-11-22T09:45:56;100896.44;;;12.06;100.00
73821;BME280;62150;43.582;1.456;2023-11-22T09:48:24;100899.50;;;11.91;100.00
73821;BME280;62150;43.582;1.456;2023-11-22T09:50:59;100904.25;;;12.53;100.00
73821;BME280;62150;43.582;1.456;2023-11-22T09:53:32;100908.09;;;12.17;100.00
73821;BME280;62150;43.582;1.456;2023-11-22T09:56:02;100904.75;;;12.13;100.00
73821;BME280;62150;43.582;1.456;2023-11-22T09:58:31;100911.19;;;12.51;100.00
73821;BME280;62150;43.582;1.456;2023-11-22T10:00:59;100919.69;;;12.03;100.00
73821;BME280;62150;43.582;1.456;2023-11-22T10:03:27;100919.50;;;12.10;100.00
73821;BME280;62150;43.582;1.456;2023-11-22T10:05:56;100916.81;;;12.62;100.00
73821;BME280;62150;43.582;1.456;2023-11-22T10:08:25;100928.56;;;12.46;100.00
73821;BME280;62150;43.582;1.456;2023-11-22T10:10:55;100928.78;;;12.40;100.00
73821;BME280;62150;43.582;1.456;2023-11-22T10:13:23;100929.34;;;12.23;100.00
73821;BME280;62150;43.582;1.456;2023-11-22T10:15:51;100918.78;;;12.31;100.00
73821;BME280;62150;43.582;1.456;2023-11-22T10:18:19;100925.34;;;12.64;100.00
73821;BME280;62150;43.582;1.456;2023-11-22T10:20:48;100922.97;;;12.58;100.00
73821;BME280;62150;43.582;1.456;2023-11-22T10:23:17;100920.50;;;12.55;100.00
73821;BME280;62150;43.582;1.456;2023-11-22T10:25:46;100924.47;;;12.65;100.00
73821;BME280;62150;43.582;1.456;2023-11-22T10:28:17;100925.50;;;12.60;100.00
73821;BME280;62150;43.582;1.456;2023-11-22T10:30:46;100911.78;;;12.59;100.00
73821;BME280;62150;43.582;1.456;2023-11-22T10:33:14;100923.13;;;12.29;100.00
73821;BME280;62150;43.582;1.456;2023-11-22T10:35:43;100919.47;;;12.61;100.00
73821;BME280;62150;43.582;1.456;2023-11-22T10:38:13;100919.88;;;12.73;100.00
73821;BME280;62150;43.582;1.456;2023-11-22T10:40:40;100913.25;;;12.90;100.00
73821;BME280;62150;43.582;1.456;2023-11-22T10:43:11;100915.25;;;12.58;100.00
73821;BME280;62150;43.582;1.456;2023-11-22T10:45:42;100914.78;;;12.72;100.00
73821;BME280;62150;43.582;1.456;2023-11-22T10:48:13;100919.41;;;12.86;100.00
73821;BME280;62150;43.582;1.456;2023-11-22T10:50:42;100922.09;;;12.83;100.00
73821;BME280;62150;43.582;1.456;2023-11-22T10:53:13;100920.31;;;12.85;100.00
73821;BME280;62150;43.582;1.456;2023-11-22T10:55:45;100912.56;;;12.85;100.00
73821;BME280;62150;43.582;1.456;2023-11-22T10:58:14;100920.78;;;12.72;100.00
73821;BME280;62150;43.582;1.456;2023-11-22T11:00:46;100910.19;;;12.55;100.00
73821;BME280;62150;43.582;1.456;2023-11-22T11:03:18;100913.31;;;12.65;100.00
73821;BME280;62150;43.582;1.456;2023-11-22T11:05:50;100895.50;;;13.05;100.00
73821;BME280;62150;43.582;1.456;2023-11-22T11:08:18;100902.72;;;12.48;100.00
73821;BME280;62150;43.582;1.456;2023-11-22T11:10:48;100892.34;;;12.97;100.00
73821;BME280;62150;43.582;1.456;2023-11-22T11:13:16;100884.00;;;13.14;100.00
73821;BME280;62150;43.582;1.456;2023-11-22T11:15:46;100880.28;;;12.98;100.00
73821;BME280;62150;43.582;1.456;2023-11-22T11:18:15;100880.41;;;13.18;100.00
73821;BME280;62150;43.582;1.456;2023-11-22T11:20:46;100880.63;;;13.35;100.00
73821;BME280;62150;43.582;1.456;2023-11-22T11:23:16;100871.59;;;13.00;100.00
73821;BME280;62150;43.582;1.456;2023-11-22T11:25:48;100865.72;;;12.97;100.00
73821;BME280;62150;43.582;1.456;2023-11-22T11:28:16;100870.72;;;12.78;100.00
73821;BME280;62150;43.582;1.456;2023-11-22T11:30:53;100876.25;;;12.91;100.00
73821;BME280;62150;43.582;1.456;2023-11-22T11:33:27;100877.69;;;12.76;100.00
73821;BME280;62150;43.582;1.456;2023-11-22T11:36:00;100867.19;;;12.81;100.00
73821;BME280;62150;43.582;1.456;2023-11-22T11:38:32;100874.06;;;13.03;100.00
73821;BME280;62150;43.582;1.456;2023-11-22T11:41:08;100877.50;;;13.04;100.00
73821;BME280;62150;43.582;1.456;2023-11-22T11:43:43;100876.66;;;13.03;100.00
73821;BME280;62150;43.582;1.456;2023-11-22T11:46:13;100871.09;;;12.91;100.00
73821;BME280;62150;43.582;1.456;2023-11-22T11:48:43;100878.81;;;13.16;100.00
73821;BME280;62150;43.582;1.456;2023-11-22T11:51:14;100885.69;;;13.15;100.00
73821;BME280;62150;43.582;1.456;2023-11-22T11:53:42;100892.25;;;13.00;100.00
73821;BME280;62150;43.582;1.456;2023-11-22T11:56:10;100893.66;;;13.09;100.00
73821;BME280;62150;43.582;1.456;2023-11-22T11:58:40;100893.94;;;13.01;100.00
73821;BME280;62150;43.582;1.456;2023-11-22T12:01:08;100892.84;;;13.30;100.00
73821;BME280;62150;43.582;1.456;2023-11-22T12:03:38;100901.50;;;13.06;100.00
73821;BME280;62150;43.582;1.456;2023-11-22T12:06:06;100890.28;;;13.07;100.00
73821;BME280;62150;43.582;1.456;2023-11-22T12:08:34;100892.19;;;13.02;100.00
73821;BME280;62150;43.582;1.456;2023-11-22T12:11:02;100893.00;;;13.49;100.00
73821;BME280;62150;43.582;1.456;2023-11-22T12:13:31;100900.91;;;13.45;100.00
73821;BME280;62150;43.582;1.456;2023-11-22T12:15:59;100905.81;;;13.29;100.00
73821;BME280;62150;43.582;1.456;2023-11-22T12:18:28;100907.78;;;12.99;100.00
73821;BME280;62150;43.582;1.456;2023-11-22T12:21:01;100908.44;;;13.27;100.00
73821;BME280;62150;43.582;1.456;2023-11-22T12:23:29;100893.41;;;13.17;100.00
73821;BME280;62150;43.582;1.456;2023-11-22T12:25:57;100896.09;;;13.35;100.00
73821;BME280;62150;43.582;1.456;2023-11-22T12:28:26;100883.13;;;13.81;100.00
73821;BME280;62150;43.582;1.456;2023-11-22T12:30:54;100895.22;;;13.36;100.00
73821;BME280;62150;43.582;1.456;2023-11-22T12:33:22;100876.19;;;13.39;100.00
73821;BME280;62150;43.582;1.456;2023-11-22T12:35:49;100878.63;;;13.20;100.00
73821;BME280;62150;43.582;1.456;2023-11-22T12:38:18;100875.13;;;13.21;100.00
73821;BME280;62150;43.582;1.456;2023-11-22T12:40:49;100861.81;;;13.32;100.00
73821;BME280;62150;43.582;1.456;2023-11-22T12:43:18;100861.94;;;13.29;100.00
73821;BME280;62150;43.582;1.456;2023-11-22T12:45:46;100852.63;;;13.68;100.00
73821;BME280;62150;43.582;1.456;2023-11-22T12:48:24;100849.44;;;13.62;100.00
73821;BME280;62150;43.582;1.456;2023-11-22T12:50:52;100848.50;;;13.21;100.00
73821;BME280;62150;43.582;1.456;2023-11-22T12:53:21;100846.13;;;13.80;100.00
73821;BME280;62150;43.582;1.456;2023-11-22T12:55:49;100834.94;;;14.80;100.00
73821;BME280;62150;43.582;1.456;2023-11-22T12:58:18;100827.94;;;14.03;100.00
73821;BME280;62150;43.582;1.456;2023-11-22T13:00:46;100810.66;;;14.45;100.00
73821;BME280;62150;43.582;1.456;2023-11-22T13:03:14;100810.47;;;13.88;100.00
73821;BME280;62150;43.582;1.456;2023-11-22T13:05:43;100813.19;;;14.05;100.00
73821;BME280;62150;43.582;1.456;2023-11-22T13:08:12;100812.63;;;14.19;100.00
73821;BME280;62150;43.582;1.456;2023-11-22T13:10:44;100804.63;;;14.24;100.00
73821;BME280;62150;43.582;1.456;2023-11-22T13:13:12;100809.38;;;14.14;100.00
73821;BME280;62150;43.582;1.456;2023-11-22T13:15:40;100815.47;;;14.13;100.00
73821;BME280;62150;43.582;1.456;2023-11-22T13:18:08;100814.28;;;14.20;100.00
73821;BME280;62150;43.582;1.456;2023-11-22T13:20:35;100813.13;;;13.87;100.00
73821;BME280;62150;43.582;1.456;2023-11-22T13:23:05;100822.06;;;13.80;100.00
73821;BME280;62150;43.582;1.456;2023-11-22T13:25:33;100833.59;;;13.71;100.00
73821;BME280;62150;43.582;1.456;2023-11-22T13:28:03;100831.41;;;14.43;100.00
73821;BME280;62150;43.582;1.456;2023-11-22T13:30:31;100829.97;;;14.36;100.00
73821;BME280;62150;43.582;1.456;2023-11-22T13:32:58;100836.31;;;13.88;100.00
73821;BME280;62150;43.582;1.456;2023-11-22T13:35:27;100835.28;;;13.92;100.00
73821;BME280;62150;43.582;1.456;2023-11-22T13:37:57;100836.28;;;14.29;100.00
73821;BME280;62150;43.582;1.456;2023-11-22T13:40:27;100835.09;;;13.97;100.00
73821;BME280;62150;43.582;1.456;2023-11-22T13:42:57;100841.13;;;14.36;100.00
73821;BME280;62150;43.582;1.456;2023-11-22T13:45:26;100848.22;;;14.13;100.00
73821;BME280;62150;43.582;1.456;2023-11-22T13:47:55;100850.53;;;13.78;100.00
73821;BME280;62150;43.582;1.456;2023-11-22T13:50:27;100859.00;;;13.82;100.00
73821;BME280;62150;43.582;1.456;2023-11-22T13:52:55;100862.59;;;13.78;100.00
73821;BME280;62150;43.582;1.456;2023-11-22T13:55:23;100860.91;;;13.55;100.00
73821;BME280;62150;43.582;1.456;2023-11-22T13:57:52;100855.16;;;13.70;100.00
73821;BME280;62150;43.582;1.456;2023-11-22T14:00:20;100867.44;;;13.85;100.00
73821;BME280;62150;43.582;1.456;2023-11-22T14:02:51;100862.66;;;13.96;100.00
73821;BME280;62150;43.582;1.456;2023-11-22T14:05:19;100854.41;;;14.08;100.00
73821;BME280;62150;43.582;1.456;2023-11-22T14:07:46;100879.59;;;14.03;100.00
73821;BME280;62150;43.582;1.456;2023-11-22T14:10:14;100882.53;;;13.74;100.00
73821;BME280;62150;43.582;1.456;2023-11-22T14:12:43;100890.63;;;13.65;100.00
73821;BME280;62150;43.582;1.456;2023-11-22T14:15:11;100891.19;;;13.73;100.00
73821;BME280;62150;43.582;1.456;2023-11-22T14:17:39;100890.81;;;14.23;100.00
73821;BME280;62150;43.582;1.456;2023-11-22T14:20:09;100889.84;;;14.66;100.00
73821;BME280;62150;43.582;1.456;2023-11-22T14:22:37;100900.59;;;14.96;100.00
73821;BME280;62150;43.582;1.456;2023-11-22T14:25:06;100908.75;;;14.68;100.00
73821;BME280;62150;43.582;1.456;2023-11-22T14:27:37;100912.75;;;14.14;100.00
73821;BME280;62150;43.582;1.456;2023-11-22T14:30:05;100911.13;;;14.32;100.00
73821;BME280;62150;43.582;1.456;2023-11-22T14:32:34;100931.69;;;14.15;100.00
73821;BME280;62150;43.582;1.456;2023-11-22T14:35:02;100913.94;;;14.48;100.00
73821;BME280;62150;43.582;1.456;2023-11-22T14:37:31;100935.88;;;14.17;100.00
73821;BME280;62150;43.582;1.456;2023-11-22T14:40:00;100938.00;;;14.07;100.00
73821;BME280;62150;43.582;1.456;2023-11-22T14:42:30;100937.63;;;14.17;100.00
73821;BME280;62150;43.582;1.456;2023-11-22T14:45:00;100944.31;;;14.00;100.00
73821;BME280;62150;43.582;1.456;2023-11-22T14:47:28;100933.06;;;14.01;100.00
73821;BME280;62150;43.582;1.456;2023-11-22T14:50:02;100949.06;;;14.11;100.00
73821;BME280;62150;43.582;1.456;2023-11-22T14:52:32;100939.84;;;14.04;100.00
73821;BME280;62150;43.582;1.456;2023-11-22T14:54:59;100939.63;;;13.88;100.00
73821;BME280;62150;43.582;1.456;2023-11-22T14:57:27;100931.81;;;14.12;100.00
73821;BME280;62150;43.582;1.456;2023-11-22T14:59:54;100915.69;;;14.47;100.00
73821;BME280;62150;43.582;1.456;2023-11-22T15:02:23;100920.94;;;14.85;100.00
73821;BME280;62150;43.582;1.456;2023-11-22T15:04:52;100917.97;;;14.13;100.00
73821;BME280;62150;43.582;1.456;2023-11-22T15:07:20;100916.47;;;14.49;100.00
73821;BME280;62150;43.582;1.456;2023-11-22T15:09:49;100927.16;;;14.60;100.00
73821;BME280;62150;43.582;1.456;2023-11-22T15:12:17;100945.22;;;13.99;100.00
73821;BME280;62150;43.582;1.456;2023-11-22T15:14:45;100928.56;;;14.06;100.00
73821;BME280;62150;43.582;1.456;2023-11-22T15:17:13;100935.81;;;14.19;100.00
73821;BME280;62150;43.582;1.456;2023-11-22T15:19:41;100925.88;;;14.70;100.00
73821;BME280;62150;43.582;1.456;2023-11-22T15:22:09;100935.78;;;14.61;100.00
73821;BME280;62150;43.582;1.456;2023-11-22T15:24:37;100943.47;;;14.83;100.00
73821;BME280;62150;43.582;1.456;2023-11-22T15:27:06;100952.06;;;14.21;100.00
73821;BME280;62150;43.582;1.456;2023-11-22T15:29:33;100933.91;;;14.44;100.00
73821;BME280;62150;43.582;1.456;2023-11-22T15:32:01;100931.03;;;14.70;100.00
73821;BME280;62150;43.582;1.456;2023-11-22T15:34:31;100938.94;;;14.88;100.00
73821;BME280;62150;43.582;1.456;2023-11-22T15:36:58;100938.53;;;14.56;100.00
73821;BME280;62150;43.582;1.456;2023-11-22T15:39:25;100945.03;;;14.46;100.00
73821;BME280;62150;43.582;1.456;2023-11-22T15:41:53;100951.69;;;14.30;100.00
73821;BME280;62150;43.582;1.456;2023-11-22T15:44:22;100956.69;;;13.92;100.00
73821;BME280;62150;43.582;1.456;2023-11-22T15:46:49;100954.03;;;14.16;100.00
73821;BME280;62150;43.582;1.456;2023-11-22T15:49:17;100955.72;;;14.17;100.00
73821;BME280;62150;43.582;1.456;2023-11-22T15:51:45;100958.47;;;14.12;100.00
73821;BME280;62150;43.582;1.456;2023-11-22T15:54:13;100954.75;;;14.19;100.00
73821;BME280;62150;43.582;1.456;2023-11-22T15:56:43;100964.97;;;14.00;100.00
73821;BME280;62150;43.582;1.456;2023-11-22T15:59:11;100952.84;;;14.23;100.00
73821;BME280;62150;43.582;1.456;2023-11-22T16:01:40;100965.72;;;13.82;100.00
73821;BME280;62150;43.582;1.456;2023-11-22T16:04:08;100956.63;;;14.16;100.00
73821;BME280;62150;43.582;1.456;2023-11-22T16:06:37;100964.97;;;14.00;100.00
73821;BME280;62150;43.582;1.456;2023-11-22T16:09:07;100964.19;;;13.55;100.00
73821;BME280;62150;43.582;1.456;2023-11-22T16:11:38;100964.50;;;13.69;100.00
73821;BME280;62150;43.582;1.456;2023-11-22T16:14:07;100958.56;;;13.45;100.00
73821;BME280;62150;43.582;1.456;2023-11-22T16:16:36;100963.31;;;13.32;100.00
73821;BME280;62150;43.582;1.456;2023-11-22T16:19:06;100961.47;;;13.36;100.00
73821;BME280;62150;43.582;1.456;2023-11-22T16:21:33;100964.00;;;13.37;100.00
73821;BME280;62150;43.582;1.456;2023-11-22T16:24:01;100959.84;;;13.33;100.00
73821;BME280;62150;43.582;1.456;2023-11-22T16:26:28;100953.16;;;13.51;100.00
73821;BME280;62150;43.582;1.456;2023-11-22T16:28:56;100953.91;;;13.53;100.00
73821;BME280;62150;43.582;1.456;2023-11-22T16:31:24;100960.19;;;13.69;100.00
73821;BME280;62150;43.582;1.456;2023-11-22T16:33:52;100966.66;;;13.58;100.00
73821;BME280;62150;43.582;1.456;2023-11-22T16:36:21;100966.19;;;13.48;100.00
73821;BME280;62150;43.582;1.456;2023-11-22T16:38:49;100976.63;;;13.45;100.00
73821;BME280;62150;43.582;1.456;2023-11-22T16:41:18;100986.13;;;13.20;100.00
73821;BME280;62150;43.582;1.456;2023-11-22T16:43:47;100987.56;;;13.28;100.00
73821;BME280;62150;43.582;1.456;2023-11-22T16:46:14;100997.63;;;13.11;100.00
73821;BME280;62150;43.582;1.456;2023-11-22T16:48:42;101005.09;;;13.19;100.00
73821;BME280;62150;43.582;1.456;2023-11-22T16:51:10;101005.41;;;13.34;100.00
73821;BME280;62150;43.582;1.456;2023-11-22T16:53:40;101009.78;;;13.07;100.00
73821;BME280;62150;43.582;1.456;2023-11-22T16:56:07;101009.63;;;12.87;100.00
73821;BME280;62150;43.582;1.456;2023-11-22T16:58:35;101018.72;;;13.22;100.00
73821;BME280;62150;43.582;1.456;2023-11-22T17:01:03;101016.25;;;12.94;100.00
73821;BME280;62150;43.582;1.456;2023-11-22T17:03:30;101029.75;;;12.78;100.00
73821;BME280;62150;43.582;1.456;2023-11-22T17:05:58;101033.13;;;12.80;100.00
73821;BME280;62150;43.582;1.456;2023-11-22T17:08:25;101027.22;;;12.76;100.00
73821;BME280;62150;43.582;1.456;2023-11-22T17:10:54;101032.69;;;12.67;100.00
73821;BME280;62150;43.582;1.456;2023-11-22T17:13:21;101035.97;;;12.72;100.00
73821;BME280;62150;43.582;1.456;2023-11-22T17:15:50;101029.50;;;12.59;100.00
73821;BME280;62150;43.582;1.456;2023-11-22T17:18:17;101026.94;;;12.84;100.00
73821;BME280;62150;43.582;1.456;2023-11-22T17:20:45;101029.00;;;12.74;100.00
73821;BME280;62150;43.582;1.456;2023-11-22T17:23:13;101029.41;;;12.62;100.00
73821;BME280;62150;43.582;1.456;2023-11-22T17:25:40;101037.38;;;12.81;100.00
73821;BME280;62150;43.582;1.456;2023-11-22T17:28:10;101031.00;;;12.66;100.00
73821;BME280;62150;43.582;1.456;2023-11-22T17:30:38;101039.41;;;12.46;100.00
73821;BME280;62150;43.582;1.456;2023-11-22T17:33:05;101053.19;;;12.45;100.00
73821;BME280;62150;43.582;1.456;2023-11-22T17:35:33;101048.16;;;12.67;100.00
73821;BME280;62150;43.582;1.456;2023-11-22T17:38:00;101059.19;;;12.46;100.00
73821;BME280;62150;43.582;1.456;2023-11-22T17:40:28;101059.31;;;12.67;100.00
73821;BME280;62150;43.582;1.456;2023-11-22T17:42:58;101068.81;;;12.39;100.00
73821;BME280;62150;43.582;1.456;2023-11-22T17:45:28;101076.88;;;12.28;100.00
73821;BME280;62150;43.582;1.456;2023-11-22T17:47:56;101064.16;;;12.24;100.00
73821;BME280;62150;43.582;1.456;2023-11-22T17:50:24;101061.75;;;12.18;100.00
73821;BME280;62150;43.582;1.456;2023-11-22T17:52:51;101060.25;;;11.83;100.00
73821;BME280;62150;43.582;1.456;2023-11-22T17:55:20;101058.25;;;11.92;100.00
73821;BME280;62150;43.582;1.456;2023-11-22T17:57:48;101060.78;;;12.22;100.00
73821;BME280;62150;43.582;1.456;2023-11-22T18:00:16;101065.38;;;12.12;100.00
73821;BME280;62150;43.582;1.456;2023-11-22T18:02:45;101070.84;;;12.01;100.00
73821;BME280;62150;43.582;1.456;2023-11-22T18:05:13;101073.97;;;12.39;100.00
73821;BME280;62150;43.582;1.456;2023-11-22T18:07:40;101080.31;;;12.29;100.00
73821;BME280;62150;43.582;1.456;2023-11-22T18:10:08;101085.03;;;12.15;100.00
73821;BME280;62150;43.582;1.456;2023-11-22T18:12:35;101086.34;;;12.28;100.00
73821;BME280;62150;43.582;1.456;2023-11-22T18:15:03;101081.94;;;12.31;100.00
73821;BME280;62150;43.582;1.456;2023-11-22T18:17:31;101080.63;;;12.18;100.00
73821;BME280;62150;43.582;1.456;2023-11-22T18:20:00;101082.50;;;12.41;100.00
73821;BME280;62150;43.582;1.456;2023-11-22T18:22:29;101085.69;;;11.93;100.00
73821;BME280;62150;43.582;1.456;2023-11-22T18:24:56;101086.13;;;12.07;100.00
73821;BME280;62150;43.582;1.456;2023-11-22T18:27:24;101094.38;;;11.89;100.00
73821;BME280;62150;43.582;1.456;2023-11-22T18:29:51;101092.44;;;12.25;100.00
73821;BME280;62150;43.582;1.456;2023-11-22T18:32:19;101087.38;;;12.22;100.00
73821;BME280;62150;43.582;1.456;2023-11-22T18:34:52;101087.84;;;12.35;100.00
73821;BME280;62150;43.582;1.456;2023-11-22T18:37:25;101093.06;;;12.33;100.00
73821;BME280;62150;43.582;1.456;2023-11-22T18:39:53;101106.16;;;11.98;100.00
73821;BME280;62150;43.582;1.456;2023-11-22T18:42:24;101100.88;;;12.02;100.00
73821;BME280;62150;43.582;1.456;2023-11-22T18:44:51;101106.53;;;12.14;100.00
73821;BME280;62150;43.582;1.456;2023-11-22T18:47:19;101112.50;;;12.44;100.00
73821;BME280;62150;43.582;1.456;2023-11-22T18:49:46;101114.84;;;11.94;100.00
73821;BME280;62150;43.582;1.456;2023-11-22T18:52:14;101114.13;;;11.58;100.00
73821;BME280;62150;43.582;1.456;2023-11-22T18:54:43;101113.13;;;11.32;100.00
73821;BME280;62150;43.582;1.456;2023-11-22T18:57:10;101110.88;;;11.51;100.00
73821;BME280;62150;43.582;1.456;2023-11-22T18:59:42;101112.91;;;11.71;100.00
73821;BME280;62150;43.582;1.456;2023-11-22T19:02:12;101103.66;;;11.64;100.00
73821;BME280;62150;43.582;1.456;2023-11-22T19:04:40;101117.34;;;11.66;100.00
73821;BME280;62150;43.582;1.456;2023-11-22T19:07:09;101125.81;;;11.69;100.00
73821;BME280;62150;43.582;1.456;2023-11-22T19:09:37;101121.63;;;11.34;100.00
73821;BME280;62150;43.582;1.456;2023-11-22T19:12:08;101123.94;;;11.43;100.00
73821;BME280;62150;43.582;1.456;2023-11-22T19:14:37;101121.28;;;11.47;100.00
73821;BME280;62150;43.582;1.456;2023-11-22T19:17:08;101117.44;;;11.63;100.00
73821;BME280;62150;43.582;1.456;2023-11-22T19:19:38;101112.59;;;11.51;100.00
73821;BME280;62150;43.582;1.456;2023-11-22T19:22:07;101119.34;;;11.24;100.00
73821;BME280;62150;43.582;1.456;2023-11-22T19:24:39;101115.75;;;11.29;100.00
73821;BME280;62150;43.582;1.456;2023-11-22T19:27:08;101123.03;;;11.14;100.00
73821;BME280;62150;43.582;1.456;2023-11-22T19:29:37;101128.47;;;11.03;100.00
73821;BME280;62150;43.582;1.456;2023-11-22T19:32:08;101122.94;;;11.17;100.00
73821;BME280;62150;43.582;1.456;2023-11-22T19:34:38;101130.06;;;11.07;100.00
73821;BME280;62150;43.582;1.456;2023-11-22T19:37:06;101134.63;;;10.96;100.00
73821;BME280;62150;43.582;1.456;2023-11-22T19:42:26;101118.91;;;11.40;100.00
73821;BME280;62150;43.582;1.456;2023-11-22T19:44:54;101126.63;;;11.08;100.00
73821;BME280;62150;43.582;1.456;2023-11-22T19:47:23;101143.34;;;10.90;100.00
73821;BME280;62150;43.582;1.456;2023-11-22T19:49:50;101144.47;;;10.79;100.00
73821;BME280;62150;43.582;1.456;2023-11-22T19:52:18;101148.44;;;10.92;100.00
73821;BME280;62150;43.582;1.456;2023-11-22T19:54:45;101153.34;;;10.67;100.00
73821;BME280;62150;43.582;1.456;2023-11-22T19:57:13;101156.66;;;10.72;100.00
73821;BME280;62150;43.582;1.456;2023-11-22T19:59:42;101156.97;;;10.57;100.00
73821;BME280;62150;43.582;1.456;2023-11-22T20:02:10;101165.91;;;10.78;100.00
73821;BME280;62150;43.582;1.456;2023-11-22T20:04:36;101175.13;;;10.86;100.00
73821;BME280;62150;43.582;1.456;2023-11-22T20:07:04;101178.44;;;10.91;100.00
73821;BME280;62150;43.582;1.456;2023-11-22T20:09:32;101180.09;;;10.94;100.00
73821;BME280;62150;43.582;1.456;2023-11-22T20:11:59;101182.59;;;10.60;100.00
73821;BME280;62150;43.582;1.456;2023-11-22T20:14:27;101181.47;;;10.73;100.00
73821;BME280;62150;43.582;1.456;2023-11-22T20:16:56;101182.19;;;10.78;100.00
73821;BME280;62150;43.582;1.456;2023-11-22T20:19:24;101182.34;;;10.72;100.00
73821;BME280;62150;43.582;1.456;2023-11-22T20:21:55;101186.84;;;10.99;100.00
73821;BME280;62150;43.582;1.456;2023-11-22T20:24:22;101192.84;;;10.61;100.00
73821;BME280;62150;43.582;1.456;2023-11-22T20:26:50;101191.38;;;10.51;100.00